Time;durP1;ratioP1;P1;durP2;ratioP2;P2;SDS_P1;SDS_P2;PMS_P1;PMS_P2;Temp;Humidity;BMP_temperature;BMP_pressure;BME280_temperature;BME280_humidity;BME280_pressure;Samples;Min_cycle;Max_cycle;Signal;HPM_P1;HPM_P2
2023/09/26 00:01:13;;;;;;;;;;;;;;;21.57;48.96;101390.00;5003199;28;19913;-77
2023/09/26 00:04:03;;;;;;;;;;;;;;;21.67;48.84;101400.41;4997362;28;19918;-77
2023/09/26 00:06:57;;;;;;;;;;;;;;;21.73;48.99;101402.50;4997401;28;19914;-78
2023/09/26 00:09:49;;;;;;;;;;;;;;;21.76;48.36;101400.94;5001687;28;20298;-77
2023/09/26 00:12:41;;;;;;;;;;;;;;;21.76;48.39;101396.19;4996215;28;19932;-78
2023/09/26 00:15:33;;;;;;;;;;;;;;;21.79;48.49;101400.19;4997465;28;19913;-77
2023/09/26 00:18:20;;;;;;;;;;;;;;;21.80;48.47;101398.22;5000323;28;19939;-78
2023/09/26 00:21:15;;;;;;;;;;;;;;;21.72;48.69;101400.91;4997519;28;19914;-77
2023/09/26 00:24:07;;;;;;;;;;;;;;;21.66;48.49;101401.59;4997155;28;19918;-77
2023/09/26 00:26:59;;;;;;;;;;;;;;;21.55;48.56;101398.66;4996160;28;20306;-77
2023/09/26 00:29:51;;;;;;;;;;;;;;;21.60;48.90;101405.84;4995681;28;19913;-76
2023/09/26 00:32:43;;;;;;;;;;;;;;;21.46;48.25;101408.41;4997590;28;19914;-77
2023/09/26 00:35:35;;;;;;;;;;;;;;;21.56;49.31;101408.56;4994598;28;19917;-76
2023/09/26 00:38:26;;;;;;;;;;;;;;;21.64;49.23;101407.50;4991651;28;19914;-76
2023/09/26 00:41:18;;;;;;;;;;;;;;;21.65;48.88;101411.06;4996730;28;19913;-77
2023/09/26 00:44:11;;;;;;;;;;;;;;;21.12;49.56;101408.25;4981004;28;19922;-76
2023/09/26 00:47:03;;;;;;;;;;;;;;;21.28;50.05;101397.84;4999703;28;19914;-76
2023/09/26 00:49:55;;;;;;;;;;;;;;;21.32;49.25;101406.22;4993352;28;19930;-78
2023/09/26 00:52:47;;;;;;;;;;;;;;;21.29;49.81;101399.44;4981090;28;19921;-77
2023/09/26 00:55:39;;;;;;;;;;;;;;;21.38;49.97;101401.19;4992439;28;19914;-77
2023/09/26 00:58:32;;;;;;;;;;;;;;;21.37;48.96;101399.56;4993630;28;19914;-77
2023/09/26 01:01:22;;;;;;;;;;;;;;;21.34;49.40;101396.38;4992895;28;19917;-77
2023/09/26 01:04:13;;;;;;;;;;;;;;;21.46;49.81;101402.88;4997456;28;20390;-79
2023/09/26 01:07:05;;;;;;;;;;;;;;;21.04;49.55;101397.41;4997736;28;19917;-77
2023/09/26 01:09:57;;;;;;;;;;;;;;;20.77;50.40;101396.56;4997648;28;19917;-77
2023/09/26 01:12:50;;;;;;;;;;;;;;;20.59;50.97;101406.47;4999492;28;19914;-77
2023/09/26 01:15:42;;;;;;;;;;;;;;;20.67;51.59;101403.47;4996909;28;19913;-76
2023/09/26 01:18:34;;;;;;;;;;;;;;;20.86;51.37;101405.41;5000874;28;19913;-77
2023/09/26 01:21:26;;;;;;;;;;;;;;;20.98;50.92;101399.69;4999200;28;19917;-77
2023/09/26 01:24:15;;;;;;;;;;;;;;;20.97;50.59;101395.34;4995467;28;19918;-77
2023/09/26 01:27:07;;;;;;;;;;;;;;;20.87;50.47;101391.22;4995753;28;19913;-77
2023/09/26 01:29:57;;;;;;;;;;;;;;;21.08;51.13;101403.81;4996003;28;19913;-77
2023/09/26 01:32:49;;;;;;;;;;;;;;;21.25;50.79;101398.59;5001117;28;19913;-77
2023/09/26 01:35:41;;;;;;;;;;;;;;;21.33;50.35;101397.53;4996992;28;19914;-77
2023/09/26 01:38:33;;;;;;;;;;;;;;;21.32;49.91;101398.72;4997141;28;19918;-77
2023/09/26 01:41:26;;;;;;;;;;;;;;;21.21;50.21;101392.22;5000383;28;19914;-77
2023/09/26 01:44:18;;;;;;;;;;;;;;;21.30;50.17;101394.72;4997908;28;19917;-77
2023/09/26 01:47:20;;;;;;;;;;;;;;;21.39;50.03;101394.44;4995540;28;19913;-76
2023/09/26 01:50:12;;;;;;;;;;;;;;;21.45;49.74;101387.44;4994848;28;19918;-77
2023/09/26 01:53:04;;;;;;;;;;;;;;;21.43;49.52;101378.72;4984512;28;20003;-77
2023/09/26 01:56:00;;;;;;;;;;;;;;;21.50;49.77;101392.66;4989287;28;19917;-77
2023/09/26 01:58:51;;;;;;;;;;;;;;;21.51;49.37;101395.03;4989305;28;19917;-77
2023/09/26 02:01:44;;;;;;;;;;;;;;;21.50;49.57;101398.19;4974807;28;19918;-77
2023/09/26 02:04:44;;;;;;;;;;;;;;;21.41;49.02;101390.16;4983214;28;19917;-77
2023/09/26 02:07:36;;;;;;;;;;;;;;;21.33;49.44;101392.00;4996341;28;19914;-77
2023/09/26 02:10:25;;;;;;;;;;;;;;;21.32;50.00;101392.38;4992690;28;20374;-76
2023/09/26 02:13:17;;;;;;;;;;;;;;;21.37;49.90;101394.03;4997313;28;19925;-77
2023/09/26 02:16:12;;;;;;;;;;;;;;;21.23;49.70;101392.63;4995434;28;19914;-77
2023/09/26 02:19:04;;;;;;;;;;;;;;;21.23;50.53;101387.09;4985154;28;19914;-77
2023/09/26 02:21:55;;;;;;;;;;;;;;;21.31;50.25;101377.75;4996508;28;19914;-77
2023/09/26 02:24:47;;;;;;;;;;;;;;;21.36;50.27;101379.41;4995311;28;19918;-77
2023/09/26 02:27:39;;;;;;;;;;;;;;;21.40;50.08;101385.78;4996493;28;19914;-77
2023/09/26 02:30:31;;;;;;;;;;;;;;;21.41;49.66;101381.03;4988891;28;19914;-76
2023/09/26 02:33:23;;;;;;;;;;;;;;;21.44;49.87;101383.06;4998804;28;19917;-76
2023/09/26 02:36:13;;;;;;;;;;;;;;;21.31;49.33;101372.22;4984550;28;20301;-77
2023/09/26 02:39:05;;;;;;;;;;;;;;;21.18;50.08;101375.56;4995155;28;20496;-77
2023/09/26 02:41:56;;;;;;;;;;;;;;;21.26;50.12;101372.53;4999199;28;19914;-77
2023/09/26 02:44:48;;;;;;;;;;;;;;;21.30;49.91;101376.16;4982218;28;20386;-76
2023/09/26 02:47:40;;;;;;;;;;;;;;;21.33;50.40;101372.63;4994967;28;19914;-77
2023/09/26 02:50:30;;;;;;;;;;;;;;;21.37;49.71;101369.94;4994985;28;19913;-76
2023/09/26 02:53:22;;;;;;;;;;;;;;;21.37;49.67;101374.66;4995329;28;19913;-77
2023/09/26 02:56:14;;;;;;;;;;;;;;;21.32;49.49;101371.06;5000572;28;19914;-77
2023/09/26 02:59:06;;;;;;;;;;;;;;;21.27;49.41;101374.13;5000953;28;19914;-76
2023/09/26 03:01:58;;;;;;;;;;;;;;;21.22;49.50;101371.69;4995334;28;19914;-76
2023/09/26 03:04:53;;;;;;;;;;;;;;;21.12;49.72;101372.28;4985545;28;19917;-77
2023/09/26 03:07:45;;;;;;;;;;;;;;;21.19;49.96;101369.66;4981942;28;20383;-77
2023/09/26 03:10:37;;;;;;;;;;;;;;;21.18;49.94;101361.75;4962057;28;19913;-77
2023/09/26 03:13:26;;;;;;;;;;;;;;;21.17;49.78;101362.91;4979445;28;20290;-77
2023/09/26 03:16:18;;;;;;;;;;;;;;;21.14;49.92;101358.91;4967762;28;19914;-77
2023/09/26 03:19:10;;;;;;;;;;;;;;;21.11;49.88;101356.84;4979325;28;19914;-77
2023/09/26 03:22:02;;;;;;;;;;;;;;;21.09;50.04;101358.38;4978591;28;19914;-77
2023/09/26 03:24:54;;;;;;;;;;;;;;;21.09;49.71;101352.84;4974930;28;19918;-77
2023/09/26 03:27:46;;;;;;;;;;;;;;;21.08;50.04;101354.81;4960704;28;19914;-77
2023/09/26 03:30:37;;;;;;;;;;;;;;;21.09;50.11;101356.41;4976441;28;19914;-75
2023/09/26 03:33:29;;;;;;;;;;;;;;;21.08;50.17;101363.09;4974977;28;19918;-77
2023/09/26 03:36:19;;;;;;;;;;;;;;;21.06;50.08;101357.16;4975391;28;19914;-77
2023/09/26 03:39:11;;;;;;;;;;;;;;;21.05;50.09;101357.53;4976435;28;19922;-77
2023/09/26 03:42:03;;;;;;;;;;;;;;;21.03;50.30;101363.41;4979535;28;19918;-77
2023/09/26 03:44:55;;;;;;;;;;;;;;;21.04;50.21;101364.22;4975963;28;19926;-77
2023/09/26 03:47:49;;;;;;;;;;;;;;;21.02;50.37;101367.38;4977884;28;19914;-77
2023/09/26 03:50:41;;;;;;;;;;;;;;;21.00;50.23;101364.16;4990135;28;19918;-77
2023/09/26 03:53:33;;;;;;;;;;;;;;;20.98;50.36;101360.19;4995197;28;19918;-76
2023/09/26 03:56:25;;;;;;;;;;;;;;;20.93;50.47;101352.97;4994563;28;19922;-77
2023/09/26 03:59:17;;;;;;;;;;;;;;;20.93;50.55;101359.31;4997871;28;20382;-77
2023/09/26 04:02:09;;;;;;;;;;;;;;;20.93;50.53;101352.97;4995827;28;19914;-77
2023/09/26 04:05:01;;;;;;;;;;;;;;;20.92;50.64;101357.75;4994744;28;19921;-76
2023/09/26 04:07:53;;;;;;;;;;;;;;;20.91;50.62;101352.56;4996986;28;19914;-76
2023/09/26 04:10:42;;;;;;;;;;;;;;;20.91;50.49;101347.84;4995354;28;19914;-77
2023/09/26 04:13:34;;;;;;;;;;;;;;;20.90;50.62;101354.53;4998010;28;19918;-77
2023/09/26 04:16:26;;;;;;;;;;;;;;;20.89;50.55;101354.91;4995407;28;19917;-77
2023/09/26 04:19:18;;;;;;;;;;;;;;;20.89;50.90;101352.13;4994812;28;20294;-77
2023/09/26 04:22:07;;;;;;;;;;;;;;;20.88;50.80;101350.53;4996069;28;19913;-76
2023/09/26 04:24:59;;;;;;;;;;;;;;;20.86;50.74;101348.16;4988360;28;19925;-77
2023/09/26 04:27:51;;;;;;;;;;;;;;;20.86;50.87;101352.88;4992741;28;19917;-77
2023/09/26 04:30:43;;;;;;;;;;;;;;;20.86;50.93;101347.34;4996993;28;19913;-76
2023/09/26 04:33:33;;;;;;;;;;;;;;;20.85;51.03;101342.97;4994760;28;20382;-77
2023/09/26 04:36:24;;;;;;;;;;;;;;;20.83;51.24;101345.31;4998047;28;20120;-76
2023/09/26 04:39:16;;;;;;;;;;;;;;;20.84;51.11;101346.91;4996218;28;20382;-77
2023/09/26 04:42:09;;;;;;;;;;;;;;;20.82;50.99;101341.78;4993694;28;19914;-77
2023/09/26 04:45:01;;;;;;;;;;;;;;;20.82;51.01;101340.97;4993569;28;19917;-77
2023/09/26 04:47:53;;;;;;;;;;;;;;;20.83;51.00;101342.53;4995711;28;19914;-77
2023/09/26 04:50:42;;;;;;;;;;;;;;;20.82;51.25;101341.78;4999108;28;19914;-77
2023/09/26 04:53:34;;;;;;;;;;;;;;;20.60;51.48;101344.53;4995398;28;19913;-75
2023/09/26 04:56:26;;;;;;;;;;;;;;;20.33;51.92;101341.66;4992760;28;20453;-76
2023/09/26 04:59:16;;;;;;;;;;;;;;;20.14;52.42;101346.38;4996087;28;19914;-76
2023/09/26 05:02:05;;;;;;;;;;;;;;;19.88;52.74;101353.34;4994986;28;19913;-76
2023/09/26 05:04:57;;;;;;;;;;;;;;;19.64;53.27;101351.66;4992534;28;19922;-76
2023/09/26 05:07:49;;;;;;;;;;;;;;;19.43;53.62;101353.91;4998897;28;19914;-77
2023/09/26 05:10:41;;;;;;;;;;;;;;;19.42;53.83;101357.84;4991248;28;19914;-76
2023/09/26 05:13:33;;;;;;;;;;;;;;;19.43;53.70;101356.69;4980667;28;19922;-78
2023/09/26 05:16:25;;;;;;;;;;;;;;;19.49;53.47;101351.72;4986016;28;19914;-77
2023/09/26 05:19:18;;;;;;;;;;;;;;;19.45;53.45;101362.69;4991878;28;20382;-76
2023/09/26 05:22:10;;;;;;;;;;;;;;;19.45;53.46;101356.34;4993350;28;19914;-77
2023/09/26 05:25:02;;;;;;;;;;;;;;;19.54;53.44;101356.94;4986119;28;20302;-77
2023/09/26 05:27:54;;;;;;;;;;;;;;;19.08;54.67;101353.88;4987146;28;19914;-75
2023/09/26 05:30:47;;;;;;;;;;;;;;;17.77;59.46;101353.06;4991400;28;19913;-77
2023/09/26 05:33:39;;;;;;;;;;;;;;;17.56;60.58;101366.16;4996993;28;19914;-77
2023/09/26 05:36:31;;;;;;;;;;;;;;;17.46;61.52;101359.19;5001260;28;19917;-77
2023/09/26 05:39:23;;;;;;;;;;;;;;;17.93;60.23;101359.44;4992223;28;19917;-78
2023/09/26 05:42:16;;;;;;;;;;;;;;;18.06;59.33;101362.94;4980715;28;19918;-76
2023/09/26 05:45:08;;;;;;;;;;;;;;;18.10;58.65;101365.78;4983381;28;19917;-77
2023/09/26 05:48:00;;;;;;;;;;;;;;;18.02;59.40;101366.75;4994390;28;20314;-77
2023/09/26 05:51:03;;;;;;;;;;;;;;;18.40;58.61;101372.53;5003215;28;19943;-77
2023/09/26 05:53:55;;;;;;;;;;;;;;;17.41;62.25;101358.63;5002146;28;19917;-77
2023/09/26 05:56:47;;;;;;;;;;;;;;;17.62;62.03;101364.81;4999553;28;19913;-77
2023/09/26 05:59:39;;;;;;;;;;;;;;;18.21;60.25;101369.66;4995204;28;19914;-77
2023/09/26 06:02:31;;;;;;;;;;;;;;;17.43;62.21;101368.09;4984275;28;19914;-78
2023/09/26 06:05:23;;;;;;;;;;;;;;;18.20;61.07;101379.06;4975690;28;20233;-77
2023/09/26 06:08:15;;;;;;;;;;;;;;;18.03;61.09;101362.84;4984274;28;19918;-77
2023/09/26 06:11:07;;;;;;;;;;;;;;;18.49;60.51;101386.19;4979425;28;19914;-77
2023/09/26 06:13:59;;;;;;;;;;;;;;;18.82;58.74;101377.63;4979083;28;19918;-76
2023/09/26 06:16:51;;;;;;;;;;;;;;;18.99;58.38;101389.13;4983251;28;19914;-77
2023/09/26 06:19:46;;;;;;;;;;;;;;;19.38;57.49;101387.28;4996397;28;19921;-78
2023/09/26 06:22:38;;;;;;;;;;;;;;;19.20;58.06;101389.63;5003537;28;19914;-77
2023/09/26 06:25:30;;;;;;;;;;;;;;;19.32;57.94;101385.16;4999691;28;20378;-77
2023/09/26 06:28:22;;;;;;;;;;;;;;;19.52;57.60;101393.16;4992824;28;19914;-77
2023/09/26 06:31:14;;;;;;;;;;;;;;;19.77;57.52;101379.94;4994563;28;19918;-77
2023/09/26 06:34:06;;;;;;;;;;;;;;;19.70;57.36;101384.50;4987977;28;19913;-77
2023/09/26 06:36:58;;;;;;;;;;;;;;;19.79;58.41;101387.84;4988940;28;19914;-77
2023/09/26 06:39:51;;;;;;;;;;;;;;;19.76;58.19;101388.59;4994044;28;19918;-78
2023/09/26 06:42:43;;;;;;;;;;;;;;;19.96;57.17;101392.97;5003276;28;19918;-76
2023/09/26 06:45:35;;;;;;;;;;;;;;;19.89;57.91;101390.03;5004657;28;19926;-77
2023/09/26 06:48:27;;;;;;;;;;;;;;;19.94;58.16;101389.75;4998026;28;20431;-78
2023/09/26 06:51:24;;;;;;;;;;;;;;;20.17;57.68;101390.63;5007248;28;19914;-77
2023/09/26 06:54:16;;;;;;;;;;;;;;;20.50;57.52;101392.91;5001979;28;19914;-76
2023/09/26 06:57:08;;;;;;;;;;;;;;;20.41;57.90;101384.84;5002116;28;20378;-79
2023/09/26 06:59:57;;;;;;;;;;;;;;;20.50;58.89;101392.91;5001493;28;19913;-78
2023/09/26 07:02:46;;;;;;;;;;;;;;;20.62;57.92;101392.72;4995595;28;19914;-78
2023/09/26 07:05:38;;;;;;;;;;;;;;;20.79;57.38;101396.97;4998829;28;19918;-77
2023/09/26 07:08:30;;;;;;;;;;;;;;;21.01;57.06;101398.16;4992965;28;19918;-77
2023/09/26 07:11:22;;;;;;;;;;;;;;;21.02;57.73;101394.22;4992436;28;19913;-77
2023/09/26 07:14:19;;;;;;;;;;;;;;;21.24;56.32;101394.22;4992254;28;19917;-77
2023/09/26 07:17:14;;;;;;;;;;;;;;;21.08;56.55;101390.75;4991451;28;20330;-77
2023/09/26 07:20:07;;;;;;;;;;;;;;;21.14;56.04;101394.84;4980972;28;19914;-77
2023/09/26 07:22:59;;;;;;;;;;;;;;;21.16;55.37;101395.28;4982849;28;20295;-78
2023/09/26 07:25:52;;;;;;;;;;;;;;;21.40;53.98;101388.53;4981089;28;19922;-77
2023/09/26 07:28:45;;;;;;;;;;;;;;;21.58;53.34;101388.81;4982789;28;19922;-76
2023/09/26 07:31:37;;;;;;;;;;;;;;;21.51;52.74;101392.28;4992933;28;19913;-77
2023/09/26 07:34:30;;;;;;;;;;;;;;;21.50;52.25;101396.22;4988474;28;19926;-76
2023/09/26 07:37:22;;;;;;;;;;;;;;;21.68;51.94;101399.25;4984547;28;20298;-77
2023/09/26 07:40:14;;;;;;;;;;;;;;;21.73;51.71;101394.19;4987330;28;19913;-78
2023/09/26 07:43:06;;;;;;;;;;;;;;;21.81;51.91;101395.06;4984329;28;19917;-78
2023/09/26 07:45:58;;;;;;;;;;;;;;;21.89;51.73;101402.28;4996892;28;19917;-78
2023/09/26 07:48:49;;;;;;;;;;;;;;;22.03;51.10;101399.75;5001577;28;19913;-78
2023/09/26 07:51:40;;;;;;;;;;;;;;;22.15;51.16;101398.69;4989834;28;20375;-78
2023/09/26 07:54:33;;;;;;;;;;;;;;;22.16;51.25;101392.00;4983344;28;19914;-76
2023/09/26 07:57:25;;;;;;;;;;;;;;;22.27;50.96;101386.56;4981115;28;20022;-77
2023/09/26 08:00:14;;;;;;;;;;;;;;;22.25;50.69;101394.50;4986636;28;19918;-77
2023/09/26 08:03:06;;;;;;;;;;;;;;;22.42;50.85;101393.88;4999889;28;19922;-76
2023/09/26 08:06:05;;;;;;;;;;;;;;;22.50;50.04;101395.56;4998386;28;19917;-77
2023/09/26 08:08:57;;;;;;;;;;;;;;;22.54;50.37;101386.13;5003408;28;20383;-77
2023/09/26 08:11:49;;;;;;;;;;;;;;;22.37;51.24;101385.91;4999219;28;19913;-77
2023/09/26 08:14:41;;;;;;;;;;;;;;;22.42;51.09;101380.81;4996897;28;19913;-77
2023/09/26 08:17:33;;;;;;;;;;;;;;;22.38;50.29;101382.75;5001325;28;19917;-77
2023/09/26 08:20:25;;;;;;;;;;;;;;;22.32;50.66;101373.19;4998171;28;20383;-77
2023/09/26 08:23:18;;;;;;;;;;;;;;;22.37;50.49;101380.38;5000347;28;19913;-77
2023/09/26 08:26:10;;;;;;;;;;;;;;;22.50;50.42;101385.25;4988872;28;19918;-77
2023/09/26 08:29:02;;;;;;;;;;;;;;;22.45;50.44;101382.06;4989916;28;19918;-77
2023/09/26 08:31:55;;;;;;;;;;;;;;;22.60;49.75;101392.13;4992075;28;19917;-78
2023/09/26 08:34:47;;;;;;;;;;;;;;;22.54;52.56;101393.63;4994097;28;19914;-78
2023/09/26 08:37:36;;;;;;;;;;;;;;;22.30;50.34;101381.06;4984787;28;19914;-77
2023/09/26 08:40:28;;;;;;;;;;;;;;;22.26;50.96;101380.25;5008181;28;19918;-77
2023/09/26 08:43:23;;;;;;;;;;;;;;;22.45;50.69;101382.06;4985653;28;19914;-77
2023/09/26 08:46:15;;;;;;;;;;;;;;;22.26;50.98;101379.44;4992274;28;19918;-77
2023/09/26 08:49:05;;;;;;;;;;;;;;;22.30;51.34;101383.06;4989205;28;19914;-76
2023/09/26 08:51:57;;;;;;;;;;;;;;;22.79;50.68;101383.63;4991073;28;19914;-77
2023/09/26 08:54:49;;;;;;;;;;;;;;;23.11;49.45;101381.09;4973982;28;19918;-76
2023/09/26 08:57:41;;;;;;;;;;;;;;;23.29;49.28;101389.56;4976247;28;19913;-77
2023/09/26 09:00:33;;;;;;;;;;;;;;;23.46;48.72;101386.16;4984243;28;19914;-77
2023/09/26 09:03:24;;;;;;;;;;;;;;;23.57;48.41;101386.25;4995139;28;19913;-77
2023/09/26 09:06:16;;;;;;;;;;;;;;;23.71;47.94;101384.34;4992727;28;19922;-77
2023/09/26 09:09:14;;;;;;;;;;;;;;;23.70;48.13;101391.06;4997568;28;19913;-77
2023/09/26 09:12:21;;;;;;;;;;;;;;;23.64;48.25;101398.19;4995108;28;19917;-77
2023/09/26 09:15:20;;;;;;;;;;;;;;;23.96;47.32;101392.00;4991651;28;19917;-77
2023/09/26 09:18:12;;;;;;;;;;;;;;;24.16;46.69;101390.50;4995355;28;19913;-77
2023/09/26 09:21:21;;;;;;;;;;;;;;;23.87;47.24;101384.78;4981784;28;19914;-77
2023/09/26 09:24:13;;;;;;;;;;;;;;;24.18;46.93;101386.16;4975854;28;19914;-77
2023/09/26 09:27:05;;;;;;;;;;;;;;;24.23;46.42;101379.41;4978097;28;20545;-77
2023/09/26 09:30:05;;;;;;;;;;;;;;;24.31;46.17;101375.50;4981762;28;20390;-77
2023/09/26 09:33:00;;;;;;;;;;;;;;;24.37;45.95;101367.56;4979164;28;19918;-77
2023/09/26 09:35:52;;;;;;;;;;;;;;;24.31;46.07;101369.13;4982390;28;19914;-77
2023/09/26 09:38:44;;;;;;;;;;;;;;;24.06;46.91;101357.91;4979207;28;20295;-77
2023/09/26 09:41:38;;;;;;;;;;;;;;;24.44;46.20;101353.66;4978234;28;19918;-77
2023/09/26 09:44:30;;;;;;;;;;;;;;;24.43;45.93;101358.44;4978181;28;19918;-76
2023/09/26 09:47:28;;;;;;;;;;;;;;;24.56;45.54;101348.53;4992794;28;19914;-77
2023/09/26 09:50:20;;;;;;;;;;;;;;;24.59;45.33;101346.94;4992233;28;19917;-77
2023/09/26 09:53:14;;;;;;;;;;;;;;;24.77;45.15;101342.19;4999395;28;20061;-75
2023/09/26 09:56:07;;;;;;;;;;;;;;;24.80;45.02;101340.59;4985947;28;19918;-75
2023/09/26 09:59:01;;;;;;;;;;;;;;;24.62;45.79;101337.81;4975928;28;19917;-75
2023/09/26 10:01:54;;;;;;;;;;;;;;;24.93;44.90;101325.94;4979635;28;19913;-77
2023/09/26 10:04:47;;;;;;;;;;;;;;;25.05;44.74;101324.72;4976662;28;19918;-77
2023/09/26 10:07:39;;;;;;;;;;;;;;;25.17;44.46;101318.75;4980811;28;19914;-77
2023/09/26 10:10:32;;;;;;;;;;;;;;;25.20;44.36;101317.94;4979329;28;19914;-78
2023/09/26 10:13:24;;;;;;;;;;;;;;;23.82;48.67;101324.06;4975026;28;19914;-77
2023/09/26 10:16:16;;;;;;;;;;;;;;;23.18;50.74;101327.63;4980029;28;20298;-77
2023/09/26 10:19:09;;;;;;;;;;;;;;;23.24;50.27;101317.78;4977364;28;19914;-77
2023/09/26 10:22:17;;;;;;;;;;;;;;;23.25;51.39;101319.38;4975755;28;20303;-77
2023/09/26 10:25:10;;;;;;;;;;;;;;;22.90;52.10;101311.59;4975768;28;19922;-77
2023/09/26 10:28:06;;;;;;;;;;;;;;;22.94;51.21;101316.00;4974383;28;19914;-77
2023/09/26 10:30:54;;;;;;;;;;;;;;;22.86;52.05;101321.84;4978125;28;19914;-77
2023/09/26 10:33:55;;;;;;;;;;;;;;;23.34;49.51;101325.38;4976737;28;19922;-77
2023/09/26 10:36:47;;;;;;;;;;;;;;;23.13;50.54;101322.44;4979195;28;19914;-76
2023/09/26 10:39:43;;;;;;;;;;;;;;;22.95;50.54;101325.09;4987101;28;19914;-77
2023/09/26 10:42:35;;;;;;;;;;;;;;;22.97;50.45;101311.63;4976098;28;19914;-77
2023/09/26 10:45:25;;;;;;;;;;;;;;;23.29;47.41;101306.31;4975464;28;19922;-77
2023/09/26 10:48:26;;;;;;;;;;;;;;;23.26;49.04;101309.88;4976660;28;19922;-77
2023/09/26 10:51:19;;;;;;;;;;;;;;;23.66;45.93;101304.16;4979375;28;19914;-76
2023/09/26 10:54:11;;;;;;;;;;;;;;;23.06;49.26;101300.22;4987427;28;20525;-77
2023/09/26 10:57:02;;;;;;;;;;;;;;;23.05;49.15;101293.06;5002315;28;20313;-77
2023/09/26 10:59:54;;;;;;;;;;;;;;;23.51;46.97;101296.97;5003250;28;19914;-75
2023/09/26 11:02:48;;;;;;;;;;;;;;;23.50;46.44;101289.81;4996901;28;19917;-78
2023/09/26 11:05:40;;;;;;;;;;;;;;;23.65;45.97;101288.69;4996822;28;19921;-77
2023/09/26 11:08:32;;;;;;;;;;;;;;;23.98;45.49;101289.59;5001340;28;19917;-77
2023/09/26 11:11:24;;;;;;;;;;;;;;;24.31;44.34;101288.50;4999061;28;19913;-77
2023/09/26 11:14:16;;;;;;;;;;;;;;;23.73;46.46;101278.38;4999793;28;20397;-77
2023/09/26 11:17:10;;;;;;;;;;;;;;;23.16;48.10;101271.75;5000922;28;19914;-77
2023/09/26 11:20:02;;;;;;;;;;;;;;;23.11;48.84;101275.66;4991469;28;19914;-77
2023/09/26 11:22:55;;;;;;;;;;;;;;;22.83;49.30;101267.94;5000213;28;19914;-77
2023/09/26 11:25:53;;;;;;;;;;;;;;;23.40;48.00;101265.53;4995940;28;19918;-77
2023/09/26 11:28:42;;;;;;;;;;;;;;;23.11;49.66;101263.78;5009710;28;19914;-77
2023/09/26 11:31:34;;;;;;;;;;;;;;;23.15;49.64;101275.69;4999220;28;19918;-76
2023/09/26 11:34:26;;;;;;;;;;;;;;;23.18;49.71;101269.38;4997505;28;19913;-77
2023/09/26 11:37:17;;;;;;;;;;;;;;;22.77;50.80;101265.91;4996587;28;19914;-77
2023/09/26 11:40:11;;;;;;;;;;;;;;;22.68;50.88;101263.44;4993172;28;19913;-77
2023/09/26 11:43:03;;;;;;;;;;;;;;;22.66;50.91;101260.25;4989371;28;19913;-77
2023/09/26 11:45:59;;;;;;;;;;;;;;;22.75;50.78;101258.00;4992802;28;20379;-77
2023/09/26 11:48:51;;;;;;;;;;;;;;;22.73;50.90;101257.56;4983484;28;20298;-76
2023/09/26 11:51:43;;;;;;;;;;;;;;;22.94;50.72;101260.50;4998565;28;19913;-77
2023/09/26 11:54:36;;;;;;;;;;;;;;;23.06;50.23;101255.84;4996750;28;19913;-77
2023/09/26 11:57:27;;;;;;;;;;;;;;;23.01;49.92;101251.41;4992767;28;19914;-77
2023/09/26 12:00:19;;;;;;;;;;;;;;;23.06;50.33;101244.72;4996929;28;20298;-77
2023/09/26 12:03:12;;;;;;;;;;;;;;;23.59;48.29;101245.81;4997348;28;19914;-78
2023/09/26 12:06:05;;;;;;;;;;;;;;;23.31;49.19;101246.47;5002514;28;19918;-77
2023/09/26 12:08:57;;;;;;;;;;;;;;;23.39;48.99;101247.28;4996108;28;19914;-78
2023/09/26 12:11:56;;;;;;;;;;;;;;;23.11;49.68;101238.81;4977357;28;19918;-77
2023/09/26 12:14:48;;;;;;;;;;;;;;;23.19;49.42;101244.00;4979182;28;19914;-77
2023/09/26 12:17:39;;;;;;;;;;;;;;;23.67;48.69;101241.09;4996966;28;19917;-77
2023/09/26 12:20:29;;;;;;;;;;;;;;;23.70;48.08;101227.22;4995564;28;19914;-77
2023/09/26 12:23:21;;;;;;;;;;;;;;;23.90;48.07;101232.41;4997833;28;19913;-77
2023/09/26 12:26:13;;;;;;;;;;;;;;;23.76;48.11;101230.41;4995802;28;19918;-78
2023/09/26 12:29:08;;;;;;;;;;;;;;;24.59;46.29;101228.13;4995687;28;20315;-78
2023/09/26 12:31:58;;;;;;;;;;;;;;;24.11;47.43;101221.34;4989712;28;19913;-77
2023/09/26 12:34:48;;;;;;;;;;;;;;;23.74;48.42;101219.69;4994194;28;19914;-77
2023/09/26 12:37:39;;;;;;;;;;;;;;;23.26;49.62;101219.06;4991152;28;19922;-77
2023/09/26 12:40:31;;;;;;;;;;;;;;;23.47;49.15;101209.28;4995158;28;19914;-77
2023/09/26 12:43:24;;;;;;;;;;;;;;;23.79;48.27;101216.53;4982585;28;19913;-77
2023/09/26 12:46:16;;;;;;;;;;;;;;;23.32;49.17;101213.94;4990909;28;19917;-77
2023/09/26 12:49:08;;;;;;;;;;;;;;;23.14;49.95;101208.31;4997287;28;19914;-77
2023/09/26 12:52:00;;;;;;;;;;;;;;;23.11;50.31;101213.84;4993479;28;20373;-77
2023/09/26 12:54:52;;;;;;;;;;;;;;;23.01;50.21;101210.59;4996138;28;20290;-76
2023/09/26 12:57:41;;;;;;;;;;;;;;;23.34;49.28;101198.50;4975178;28;19914;-77
2023/09/26 13:00:33;;;;;;;;;;;;;;;23.20;50.11;101205.97;4986107;28;19918;-76
2023/09/26 13:03:25;;;;;;;;;;;;;;;23.56;48.92;101196.63;4997624;28;19918;-76
2023/09/26 13:06:21;;;;;;;;;;;;;;;23.09;49.92;101189.25;4985053;28;19918;-77
2023/09/26 13:09:13;;;;;;;;;;;;;;;23.17;50.03;101176.19;4993623;28;19913;-76
2023/09/26 13:12:08;;;;;;;;;;;;;;;23.16;49.56;101183.72;4996816;28;19913;-77
2023/09/26 13:15:00;;;;;;;;;;;;;;;22.94;50.34;101180.06;5002136;28;19913;-77
2023/09/26 13:17:52;;;;;;;;;;;;;;;22.97;50.02;101181.25;4999175;28;20374;-77
2023/09/26 13:20:41;;;;;;;;;;;;;;;22.94;50.07;101177.28;4988807;28;20295;-77
2023/09/26 13:23:33;;;;;;;;;;;;;;;22.90;50.85;101173.72;4991685;28;19918;-76
2023/09/26 13:26:25;;;;;;;;;;;;;;;22.82;50.78;101169.28;4997353;28;19918;-76
2023/09/26 13:29:17;;;;;;;;;;;;;;;22.86;50.53;101164.53;4997050;28;19914;-77
2023/09/26 13:32:06;;;;;;;;;;;;;;;22.82;51.00;101162.94;4996043;28;20411;-77
2023/09/26 13:34:55;;;;;;;;;;;;;;;22.85;51.13;101151.09;4997818;28;20467;-77
2023/09/26 13:37:52;;;;;;;;;;;;;;;22.92;50.69;101159.44;4997248;28;19917;-77
2023/09/26 13:40:44;;;;;;;;;;;;;;;22.89;50.92;101149.13;5000887;28;19914;-77
2023/09/26 13:43:36;;;;;;;;;;;;;;;22.87;51.60;101151.47;4998335;28;19914;-77
2023/09/26 13:46:33;;;;;;;;;;;;;;;22.86;51.04;101150.69;5003736;28;19921;-77
2023/09/26 13:49:23;;;;;;;;;;;;;;;22.87;51.04;101138.41;5000372;28;20453;-77
2023/09/26 13:52:15;;;;;;;;;;;;;;;22.85;50.84;101138.03;5002700;28;19913;-78
2023/09/26 13:55:07;;;;;;;;;;;;;;;22.82;50.85;101124.91;4997318;28;19922;-77
2023/09/26 13:57:59;;;;;;;;;;;;;;;22.81;51.18;101137.19;4999619;28;19914;-77
2023/09/26 14:00:51;;;;;;;;;;;;;;;22.81;51.47;101139.97;5002576;28;19913;-77
2023/09/26 14:03:43;;;;;;;;;;;;;;;22.87;51.47;101138.41;5001086;28;19913;-77
2023/09/26 14:06:35;;;;;;;;;;;;;;;22.83;51.33;101139.56;4998247;28;19922;-77
2023/09/26 14:09:27;;;;;;;;;;;;;;;22.87;51.25;101129.28;5002115;28;19921;-79
2023/09/26 14:12:19;;;;;;;;;;;;;;;22.86;51.54;101139.59;5000796;28;19913;-77
2023/09/26 14:15:11;;;;;;;;;;;;;;;22.87;51.47;101137.59;4993151;28;19913;-76
2023/09/26 14:18:03;;;;;;;;;;;;;;;22.83;51.52;101120.97;4992934;28;19921;-77
2023/09/26 14:20:55;;;;;;;;;;;;;;;22.85;51.21;101138.03;4980106;28;19913;-77
2023/09/26 14:23:47;;;;;;;;;;;;;;;22.92;51.08;101129.72;4996827;28;19917;-77
2023/09/26 14:26:39;;;;;;;;;;;;;;;22.94;51.06;101130.13;4984139;28;20295;-76
2023/09/26 14:29:31;;;;;;;;;;;;;;;22.96;50.67;101124.19;4994789;28;19913;-77
2023/09/26 14:32:23;;;;;;;;;;;;;;;22.87;50.88;101120.97;4992453;28;19917;-77
2023/09/26 14:35:13;;;;;;;;;;;;;;;22.87;50.77;101120.97;4985535;28;19918;-77
2023/09/26 14:38:05;;;;;;;;;;;;;;;22.80;51.17;101126.50;4977108;28;19913;-77
2023/09/26 14:40:57;;;;;;;;;;;;;;;22.80;51.38;101120.94;4989539;28;19913;-77
2023/09/26 14:43:46;;;;;;;;;;;;;;;22.82;51.40;101118.56;4998250;28;19922;-76